sensor_id;sensor_type;location;lat;lon;timestamp;temperature;humidity
1956;DHT22;978;48.314;11.562;2023-05-10T00:01:12;21.10;75.10
1956;DHT22;978;48.314;11.562;2023-05-10T00:03:40;21.10;75.20
1956;DHT22;978;48.314;11.562;2023-05-10T00:06:11;21.10;75.20
1956;DHT22;978;48.314;11.562;2023-05-10T00:08:42;21.10;75.20
1956;DHT22;978;48.314;11.562;2023-05-10T00:11:13;21.10;75.20
1956;DHT22;978;48.314;11.562;2023-05-10T00:13:43;21.10;75.20
1956;DHT22;978;48.314;11.562;2023-05-10T00:16:15;21.10;75.30
1956;DHT22;978;48.314;11.562;2023-05-10T00:18:46;21.10;75.30
1956;DHT22;978;48.314;11.562;2023-05-10T00:21:14;21.10;75.30
1956;DHT22;978;48.314;11.562;2023-05-10T00:23:44;21.10;75.30
1956;DHT22;978;48.314;11.562;2023-05-10T00:26:12;21.10;75.30
1956;DHT22;978;48.314;11.562;2023-05-10T00:28:42;21.10;75.40
1956;DHT22;978;48.314;11.562;2023-05-10T00:31:10;21.10;75.40
1956;DHT22;978;48.314;11.562;2023-05-10T00:33:39;21.10;75.40
1956;DHT22;978;48.314;11.562;2023-05-10T00:36:06;21.10;75.40
1956;DHT22;978;48.314;11.562;2023-05-10T00:38:33;21.10;75.50
1956;DHT22;978;48.314;11.562;2023-05-10T00:41:00;21.10;75.50
1956;DHT22;978;48.314;11.562;2023-05-10T00:43:27;21.10;75.50
1956;DHT22;978;48.314;11.562;2023-05-10T00:45:55;21.10;75.50
1956;DHT22;978;48.314;11.562;2023-05-10T00:48:22;21.20;75.60
1956;DHT22;978;48.314;11.562;2023-05-10T00:50:50;21.10;75.50
1956;DHT22;978;48.314;11.562;2023-05-10T00:53:18;21.10;75.50
1956;DHT22;978;48.314;11.562;2023-05-10T00:55:46;21.10;75.50
1956;DHT22;978;48.314;11.562;2023-05-10T00:58:16;21.10;75.60
1956;DHT22;978;48.314;11.562;2023-05-10T01:00:46;21.10;75.60
1956;DHT22;978;48.314;11.562;2023-05-10T01:03:13;21.10;75.60
1956;DHT22;978;48.314;11.562;2023-05-10T01:05:42;21.10;75.60
1956;DHT22;978;48.314;11.562;2023-05-10T01:08:10;21.10;75.60
1956;DHT22;978;48.314;11.562;2023-05-10T01:10:37;21.10;75.60
1956;DHT22;978;48.314;11.562;2023-05-10T01:13:04;21.10;75.70
1956;DHT22;978;48.314;11.562;2023-05-10T01:15:32;21.10;75.70
1956;DHT22;978;48.314;11.562;2023-05-10T01:18:00;21.10;75.70
1956;DHT22;978;48.314;11.562;2023-05-10T01:20:32;21.10;75.70
1956;DHT22;978;48.314;11.562;2023-05-10T01:23:30;21.10;75.70
1956;DHT22;978;48.314;11.562;2023-05-10T01:29:29;21.10;75.80
1956;DHT22;978;48.314;11.562;2023-05-10T01:32:19;21.10;75.80
1956;DHT22;978;48.314;11.562;2023-05-10T01:34:55;21.10;75.80
1956;DHT22;978;48.314;11.562;2023-05-10T01:37:31;21.10;75.80
1956;DHT22;978;48.314;11.562;2023-05-10T01:40:03;21.10;75.80
1956;DHT22;978;48.314;11.562;2023-05-10T01:42:36;21.10;75.80
1956;DHT22;978;48.314;11.562;2023-05-10T01:45:13;21.10;75.80
1956;DHT22;978;48.314;11.562;2023-05-10T01:47:46;21.10;75.80
1956;DHT22;978;48.314;11.562;2023-05-10T01:50:22;21.10;75.80
1956;DHT22;978;48.314;11.562;2023-05-10T01:52:55;21.10;75.80
1956;DHT22;978;48.314;11.562;2023-05-10T01:55:25;21.10;75.80
1956;DHT22;978;48.314;11.562;2023-05-10T01:58:00;21.10;75.80
1956;DHT22;978;48.314;11.562;2023-05-10T02:00:31;21.10;75.90
1956;DHT22;978;48.314;11.562;2023-05-10T02:03:01;21.10;75.90
1956;DHT22;978;48.314;11.562;2023-05-10T02:05:31;21.10;75.90
1956;DHT22;978;48.314;11.562;2023-05-10T02:07:59;21.10;75.90
1956;DHT22;978;48.314;11.562;2023-05-10T02:10:29;21.10;75.90
1956;DHT22;978;48.314;11.562;2023-05-10T02:12:59;21.10;75.90
1956;DHT22;978;48.314;11.562;2023-05-10T02:15:26;21.20;76.00
1956;DHT22;978;48.314;11.562;2023-05-10T02:17:56;21.10;75.90
1956;DHT22;978;48.314;11.562;2023-05-10T02:20:26;21.10;75.90
1956;DHT22;978;48.314;11.562;2023-05-10T02:22:54;21.20;76.00
1956;DHT22;978;48.314;11.562;2023-05-10T02:25:24;21.10;75.90
1956;DHT22;978;48.314;11.562;2023-05-10T02:27:54;21.10;75.90
1956;DHT22;978;48.314;11.562;2023-05-10T02:30:24;21.10;75.90
1956;DHT22;978;48.314;11.562;2023-05-10T02:32:52;21.10;75.90
1956;DHT22;978;48.314;11.562;2023-05-10T02:35:21;21.20;76.00
1956;DHT22;978;48.314;11.562;2023-05-10T02:37:59;21.10;76.00
1956;DHT22;978;48.314;11.562;2023-05-10T02:40:27;21.10;75.90
1956;DHT22;978;48.314;11.562;2023-05-10T02:42:59;21.20;76.00
1956;DHT22;978;48.314;11.562;2023-05-10T02:45:27;21.10;76.00
1956;DHT22;978;48.314;11.562;2023-05-10T02:47:56;21.10;76.00
1956;DHT22;978;48.314;11.562;2023-05-10T02:50:26;21.10;76.00
1956;DHT22;978;48.314;11.562;2023-05-10T02:53:00;21.10;76.00
1956;DHT22;978;48.314;11.562;2023-05-10T02:55:33;21.20;76.00
1956;DHT22;978;48.314;11.562;2023-05-10T02:58:02;21.10;76.00
1956;DHT22;978;48.314;11.562;2023-05-10T03:00:31;21.20;76.10
1956;DHT22;978;48.314;11.562;2023-05-10T03:02:58;21.20;76.10
1956;DHT22;978;48.314;11.562;2023-05-10T03:05:26;21.10;76.00
1956;DHT22;978;48.314;11.562;2023-05-10T03:07:56;21.10;76.00
1956;DHT22;978;48.314;11.562;2023-05-10T03:10:26;21.10;76.00
1956;DHT22;978;48.314;11.562;2023-05-10T03:13:05;21.20;76.10
1956;DHT22;978;48.314;11.562;2023-05-10T03:15:42;21.10;76.00
1956;DHT22;978;48.314;11.562;2023-05-10T03:18:15;21.10;76.00
1956;DHT22;978;48.314;11.562;2023-05-10T03:20:47;21.10;76.00
1956;DHT22;978;48.314;11.562;2023-05-10T03:23:22;21.10;76.10
1956;DHT22;978;48.314;11.562;2023-05-10T03:25:52;21.10;76.00
1956;DHT22;978;48.314;11.562;2023-05-10T03:28:25;21.20;76.10
1956;DHT22;978;48.314;11.562;2023-05-10T03:30:53;21.10;76.10
1956;DHT22;978;48.314;11.562;2023-05-10T03:33:23;21.10;76.10
1956;DHT22;978;48.314;11.562;2023-05-10T03:35:53;21.20;76.10
1956;DHT22;978;48.314;11.562;2023-05-10T03:38:23;21.10;76.10
1956;DHT22;978;48.314;11.562;2023-05-10T03:40:51;21.10;76.10
1956;DHT22;978;48.314;11.562;2023-05-10T03:43:19;21.20;76.10
1956;DHT22;978;48.314;11.562;2023-05-10T03:45:46;21.10;76.10
1956;DHT22;978;48.314;11.562;2023-05-10T03:48:14;21.20;76.10
1956;DHT22;978;48.314;11.562;2023-05-10T03:50:40;21.10;76.10
1956;DHT22;978;48.314;11.562;2023-05-10T03:53:09;21.10;76.10
1956;DHT22;978;48.314;11.562;2023-05-10T03:55:37;21.20;76.10
1956;DHT22;978;48.314;11.562;2023-05-10T03:58:10;21.10;76.10
1956;DHT22;978;48.314;11.562;2023-05-10T04:00:38;21.20;76.20
1956;DHT22;978;48.314;11.562;2023-05-10T04:03:09;21.20;76.20
1956;DHT22;978;48.314;11.562;2023-05-10T04:05:35;21.20;76.20
1956;DHT22;978;48.314;11.562;2023-05-10T04:08:03;21.20;76.20
1956;DHT22;978;48.314;11.562;2023-05-10T04:10:30;21.20;76.20
1956;DHT22;978;48.314;11.562;2023-05-10T04:13:00;21.20;76.20
1956;DHT22;978;48.314;11.562;2023-05-10T04:15:28;21.20;76.20
1956;DHT22;978;48.314;11.562;2023-05-10T04:17:56;21.20;76.20
1956;DHT22;978;48.314;11.562;2023-05-10T04:20:24;21.20;76.20
1956;DHT22;978;48.314;11.562;2023-05-10T04:22:52;21.20;76.20
1956;DHT22;978;48.314;11.562;2023-05-10T04:25:22;21.10;76.20
1956;DHT22;978;48.314;11.562;2023-05-10T04:27:52;21.20;76.20
1956;DHT22;978;48.314;11.562;2023-05-10T04:30:28;21.20;76.20
1956;DHT22;978;48.314;11.562;2023-05-10T04:32:57;21.10;76.20
1956;DHT22;978;48.314;11.562;2023-05-10T04:35:27;21.20;76.30
1956;DHT22;978;48.314;11.562;2023-05-10T04:37:54;21.10;76.20
1956;DHT22;978;48.314;11.562;2023-05-10T04:40:22;21.20;76.30
1956;DHT22;978;48.314;11.562;2023-05-10T04:42:48;21.20;76.30
1956;DHT22;978;48.314;11.562;2023-05-10T04:45:19;21.20;76.30
1956;DHT22;978;48.314;11.562;2023-05-10T04:47:47;21.20;76.30
1956;DHT22;978;48.314;11.562;2023-05-10T04:50:15;21.20;76.70
1956;DHT22;978;48.314;11.562;2023-05-10T04:52:44;21.20;76.90
1956;DHT22;978;48.314;11.562;2023-05-10T04:55:11;21.20;76.90
1956;DHT22;978;48.314;11.562;2023-05-10T04:57:37;21.20;76.90
1956;DHT22;978;48.314;11.562;2023-05-10T05:00:06;21.20;77.00
1956;DHT22;978;48.314;11.562;2023-05-10T05:02:35;21.20;77.10
1956;DHT22;978;48.314;11.562;2023-05-10T05:05:03;21.20;77.20
1956;DHT22;978;48.314;11.562;2023-05-10T05:07:32;21.20;77.20
1956;DHT22;978;48.314;11.562;2023-05-10T05:10:02;21.10;77.00
1956;DHT22;978;48.314;11.562;2023-05-10T05:12:30;21.10;76.90
1956;DHT22;978;48.314;11.562;2023-05-10T05:14:59;21.10;76.70
1956;DHT22;978;48.314;11.562;2023-05-10T05:17:26;21.20;76.70
1956;DHT22;978;48.314;11.562;2023-05-10T05:19:54;21.10;76.60
1956;DHT22;978;48.314;11.562;2023-05-10T05:22:25;21.10;76.40
1956;DHT22;978;48.314;11.562;2023-05-10T05:24:55;21.10;76.40
1956;DHT22;978;48.314;11.562;2023-05-10T05:27:31;21.10;76.40
1956;DHT22;978;48.314;11.562;2023-05-10T05:30:01;21.10;76.40
1956;DHT22;978;48.314;11.562;2023-05-10T05:32:29;21.10;76.40
1956;DHT22;978;48.314;11.562;2023-05-10T05:34:56;21.10;76.40
1956;DHT22;978;48.314;11.562;2023-05-10T05:37:25;21.10;76.40
1956;DHT22;978;48.314;11.562;2023-05-10T05:39:52;21.10;76.40
1956;DHT22;978;48.314;11.562;2023-05-10T05:42:21;21.10;76.40
1956;DHT22;978;48.314;11.562;2023-05-10T05:44:48;21.10;76.40
1956;DHT22;978;48.314;11.562;2023-05-10T05:47:16;21.10;76.30
1956;DHT22;978;48.314;11.562;2023-05-10T05:49:43;21.10;76.30
1956;DHT22;978;48.314;11.562;2023-05-10T05:52:11;21.10;76.30
1956;DHT22;978;48.314;11.562;2023-05-10T05:54:41;21.10;76.30
1956;DHT22;978;48.314;11.562;2023-05-10T05:57:08;21.10;76.30
1956;DHT22;978;48.314;11.562;2023-05-10T05:59:34;21.10;76.30
1956;DHT22;978;48.314;11.562;2023-05-10T06:02:03;21.10;76.30
1956;DHT22;978;48.314;11.562;2023-05-10T06:04:34;21.20;76.40
1956;DHT22;978;48.314;11.562;2023-05-10T06:07:04;21.10;76.30
1956;DHT22;978;48.314;11.562;2023-05-10T06:09:32;21.10;76.30
1956;DHT22;978;48.314;11.562;2023-05-10T06:12:01;21.20;76.30
1956;DHT22;978;48.314;11.562;2023-05-10T06:14:29;21.10;76.90
1956;DHT22;978;48.314;11.562;2023-05-10T06:16:56;21.10;76.30
1956;DHT22;978;48.314;11.562;2023-05-10T06:19:25;21.20;76.30
1956;DHT22;978;48.314;11.562;2023-05-10T06:21:51;21.10;76.30
1956;DHT22;978;48.314;11.562;2023-05-10T06:24:18;21.10;76.30
1956;DHT22;978;48.314;11.562;2023-05-10T06:26:45;21.10;76.30
1956;DHT22;978;48.314;11.562;2023-05-10T06:29:15;21.20;76.30
1956;DHT22;978;48.314;11.562;2023-05-10T06:31:42;21.20;76.30
1956;DHT22;978;48.314;11.562;2023-05-10T06:34:10;21.10;76.30
1956;DHT22;978;48.314;11.562;2023-05-10T06:36:37;21.10;76.30
1956;DHT22;978;48.314;11.562;2023-05-10T06:39:06;21.20;76.30
1956;DHT22;978;48.314;11.562;2023-05-10T06:41:34;21.10;76.20
1956;DHT22;978;48.314;11.562;2023-05-10T06:44:03;21.10;76.20
1956;DHT22;978;48.314;11.562;2023-05-10T06:46:34;21.10;76.20
1956;DHT22;978;48.314;11.562;2023-05-10T06:49:03;21.20;76.30
1956;DHT22;978;48.314;11.562;2023-05-10T06:51:30;21.10;76.20
1956;DHT22;978;48.314;11.562;2023-05-10T06:53:59;21.10;76.20
1956;DHT22;978;48.314;11.562;2023-05-10T06:56:28;21.20;76.30
1956;DHT22;978;48.314;11.562;2023-05-10T06:58:59;21.10;76.20
1956;DHT22;978;48.314;11.562;2023-05-10T07:01:26;21.20;76.20
1956;DHT22;978;48.314;11.562;2023-05-10T07:03:56;21.20;76.20
1956;DHT22;978;48.314;11.562;2023-05-10T07:06:24;21.10;76.20
1956;DHT22;978;48.314;11.562;2023-05-10T07:08:51;21.10;76.20
1956;DHT22;978;48.314;11.562;2023-05-10T07:11:18;21.10;76.20
1956;DHT22;978;48.314;11.562;2023-05-10T07:13:45;21.10;76.10
1956;DHT22;978;48.314;11.562;2023-05-10T07:16:13;21.10;76.10
1956;DHT22;978;48.314;11.562;2023-05-10T07:18:40;21.20;76.20
1956;DHT22;978;48.314;11.562;2023-05-10T07:21:09;21.20;76.20
1956;DHT22;978;48.314;11.562;2023-05-10T07:23:37;21.20;76.20
1956;DHT22;978;48.314;11.562;2023-05-10T07:26:04;21.10;76.10
1956;DHT22;978;48.314;11.562;2023-05-10T07:28:32;21.10;76.10
1956;DHT22;978;48.314;11.562;2023-05-10T07:31:00;21.10;76.10
1956;DHT22;978;48.314;11.562;2023-05-10T07:33:27;21.20;76.20
1956;DHT22;978;48.314;11.562;2023-05-10T07:35:56;21.10;76.10
1956;DHT22;978;48.314;11.562;2023-05-10T07:38:24;21.20;76.20
1956;DHT22;978;48.314;11.562;2023-05-10T07:40:51;21.20;76.20
1956;DHT22;978;48.314;11.562;2023-05-10T07:43:19;21.10;76.10
1956;DHT22;978;48.314;11.562;2023-05-10T07:45:45;21.20;76.20
1956;DHT22;978;48.314;11.562;2023-05-10T07:48:14;21.20;76.20
1956;DHT22;978;48.314;11.562;2023-05-10T07:50:42;21.10;76.10
1956;DHT22;978;48.314;11.562;2023-05-10T07:53:10;21.20;76.20
1956;DHT22;978;48.314;11.562;2023-05-10T07:55:39;21.20;76.20
1956;DHT22;978;48.314;11.562;2023-05-10T07:58:06;21.20;76.20
1956;DHT22;978;48.314;11.562;2023-05-10T08:00:36;21.20;76.20
1956;DHT22;978;48.314;11.562;2023-05-10T08:03:11;21.10;76.10
1956;DHT22;978;48.314;11.562;2023-05-10T08:05:39;21.20;76.20
1956;DHT22;978;48.314;11.562;2023-05-10T08:08:06;21.20;76.20
1956;DHT22;978;48.314;11.562;2023-05-10T08:10:36;21.20;76.10
1956;DHT22;978;48.314;11.562;2023-05-10T08:13:09;21.20;76.10
1956;DHT22;978;48.314;11.562;2023-05-10T08:15:37;21.20;76.10
1956;DHT22;978;48.314;11.562;2023-05-10T08:18:05;21.20;76.10
1956;DHT22;978;48.314;11.562;2023-05-10T08:20:33;21.20;76.10
1956;DHT22;978;48.314;11.562;2023-05-10T08:23:00;21.20;76.10
1956;DHT22;978;48.314;11.562;2023-05-10T08:25:26;21.20;79.50
1956;DHT22;978;48.314;11.562;2023-05-10T08:27:53;21.20;84.80
1956;DHT22;978;48.314;11.562;2023-05-10T08:30:21;21.20;88.50
1956;DHT22;978;48.314;11.562;2023-05-10T08:32:48;21.20;89.20
1956;DHT22;978;48.314;11.562;2023-05-10T08:35:16;21.10;89.40
1956;DHT22;978;48.314;11.562;2023-05-10T08:37:45;21.10;89.70
1956;DHT22;978;48.314;11.562;2023-05-10T08:40:12;21.10;89.90
1956;DHT22;978;48.314;11.562;2023-05-10T08:42:44;21.10;90.10
1956;DHT22;978;48.314;11.562;2023-05-10T08:45:16;21.10;90.20
1956;DHT22;978;48.314;11.562;2023-05-10T08:47:46;21.10;90.30
1956;DHT22;978;48.314;11.562;2023-05-10T08:50:17;21.10;90.40
1956;DHT22;978;48.314;11.562;2023-05-10T08:52:46;21.10;90.50
1956;DHT22;978;48.314;11.562;2023-05-10T08:55:15;21.10;90.50
1956;DHT22;978;48.314;11.562;2023-05-10T08:57:42;21.00;90.60
1956;DHT22;978;48.314;11.562;2023-05-10T09:00:10;21.10;90.80
1956;DHT22;978;48.314;11.562;2023-05-10T09:02:40;21.10;90.90
1956;DHT22;978;48.314;11.562;2023-05-10T09:05:12;21.10;90.90
1956;DHT22;978;48.314;11.562;2023-05-10T09:07:42;21.00;91.00
1956;DHT22;978;48.314;11.562;2023-05-10T09:10:11;21.00;91.10
1956;DHT22;978;48.314;11.562;2023-05-10T09:12:40;21.00;91.10
1956;DHT22;978;48.314;11.562;2023-05-10T09:15:15;21.00;91.10
1956;DHT22;978;48.314;11.562;2023-05-10T09:17:44;21.00;91.20
1956;DHT22;978;48.314;11.562;2023-05-10T09:20:13;21.00;91.20
1956;DHT22;978;48.314;11.562;2023-05-10T09:22:40;21.00;91.20
1956;DHT22;978;48.314;11.562;2023-05-10T09:25:10;21.00;91.40
1956;DHT22;978;48.314;11.562;2023-05-10T09:27:38;21.00;91.40
1956;DHT22;978;48.314;11.562;2023-05-10T09:30:10;21.00;91.70
1956;DHT22;978;48.314;11.562;2023-05-10T09:32:44;21.00;91.80
1956;DHT22;978;48.314;11.562;2023-05-10T09:35:15;21.00;91.70
1956;DHT22;978;48.314;11.562;2023-05-10T09:37:46;21.00;91.80
1956;DHT22;978;48.314;11.562;2023-05-10T09:40:15;21.00;91.70
1956;DHT22;978;48.314;11.562;2023-05-10T09:42:51;21.00;91.70
1956;DHT22;978;48.314;11.562;2023-05-10T09:45:18;21.00;91.70
1956;DHT22;978;48.314;11.562;2023-05-10T09:47:45;21.00;91.70
1956;DHT22;978;48.314;11.562;2023-05-10T09:50:19;21.00;91.70
1956;DHT22;978;48.314;11.562;2023-05-10T09:52:49;21.00;91.80
1956;DHT22;978;48.314;11.562;2023-05-10T09:55:18;20.90;91.70
1956;DHT22;978;48.314;11.562;2023-05-10T09:57:46;21.00;91.80
1956;DHT22;978;48.314;11.562;2023-05-10T10:00:20;21.00;91.80
1956;DHT22;978;48.314;11.562;2023-05-10T10:02:53;21.00;91.90
1956;DHT22;978;48.314;11.562;2023-05-10T10:05:28;20.90;91.90
1956;DHT22;978;48.314;11.562;2023-05-10T10:07:56;21.00;92.00
1956;DHT22;978;48.314;11.562;2023-05-10T10:10:24;21.00;92.00
1956;DHT22;978;48.314;11.562;2023-05-10T10:12:51;21.00;92.10
1956;DHT22;978;48.314;11.562;2023-05-10T10:15:18;21.00;92.10
1956;DHT22;978;48.314;11.562;2023-05-10T10:17:46;21.00;92.10
1956;DHT22;978;48.314;11.562;2023-05-10T10:20:16;21.00;92.10
1956;DHT22;978;48.314;11.562;2023-05-10T10:22:46;21.00;92.10
1956;DHT22;978;48.314;11.562;2023-05-10T10:25:16;21.00;92.10
1956;DHT22;978;48.314;11.562;2023-05-10T10:27:48;21.00;92.50
1956;DHT22;978;48.314;11.562;2023-05-10T10:30:25;20.90;92.30
1956;DHT22;978;48.314;11.562;2023-05-10T10:33:07;21.00;92.40
1956;DHT22;978;48.314;11.562;2023-05-10T10:35:39;20.90;92.30
1956;DHT22;978;48.314;11.562;2023-05-10T10:38:09;21.00;92.60
1956;DHT22;978;48.314;11.562;2023-05-10T10:40:35;21.00;92.30
1956;DHT22;978;48.314;11.562;2023-05-10T10:43:23;21.00;92.30
1956;DHT22;978;48.314;11.562;2023-05-10T10:46:10;21.00;92.30
1956;DHT22;978;48.314;11.562;2023-05-10T10:48:36;21.00;92.40
1956;DHT22;978;48.314;11.562;2023-05-10T10:51:06;20.90;92.30
1956;DHT22;978;48.314;11.562;2023-05-10T10:53:38;21.00;92.40
1956;DHT22;978;48.314;11.562;2023-05-10T10:56:06;21.00;92.30
1956;DHT22;978;48.314;11.562;2023-05-10T10:58:38;21.00;92.40
1956;DHT22;978;48.314;11.562;2023-05-10T11:01:13;21.00;92.50
1956;DHT22;978;48.314;11.562;2023-05-10T11:04:16;21.00;92.50
1956;DHT22;978;48.314;11.562;2023-05-10T11:06:45;21.00;92.50
1956;DHT22;978;48.314;11.562;2023-05-10T11:09:12;21.00;92.60
1956;DHT22;978;48.314;11.562;2023-05-10T11:11:50;20.90;92.50
1956;DHT22;978;48.314;11.562;2023-05-10T11:14:22;21.00;92.50
1956;DHT22;978;48.314;11.562;2023-05-10T11:16:51;21.00;92.50
1956;DHT22;978;48.314;11.562;2023-05-10T11:19:21;21.00;92.60
1956;DHT22;978;48.314;11.562;2023-05-10T11:22:12;20.90;92.50
1956;DHT22;978;48.314;11.562;2023-05-10T11:24:40;21.00;92.60
1956;DHT22;978;48.314;11.562;2023-05-10T11:27:21;21.00;92.60
1956;DHT22;978;48.314;11.562;2023-05-10T11:29:51;21.00;92.70
1956;DHT22;978;48.314;11.562;2023-05-10T11:32:19;21.00;92.70
1956;DHT22;978;48.314;11.562;2023-05-10T11:34:52;21.00;92.60
1956;DHT22;978;48.314;11.562;2023-05-10T11:37:22;20.90;92.60
1956;DHT22;978;48.314;11.562;2023-05-10T11:39:50;21.00;92.70
1956;DHT22;978;48.314;11.562;2023-05-10T11:42:19;20.90;92.70
1956;DHT22;978;48.314;11.562;2023-05-10T11:44:47;20.90;92.70
1956;DHT22;978;48.314;11.562;2023-05-10T11:47:15;21.00;92.70
1956;DHT22;978;48.314;11.562;2023-05-10T11:49:44;20.90;92.80
1956;DHT22;978;48.314;11.562;2023-05-10T11:52:12;21.00;92.80
1956;DHT22;978;48.314;11.562;2023-05-10T11:54:50;20.90;92.80
1956;DHT22;978;48.314;11.562;2023-05-10T11:57:26;20.90;92.80
1956;DHT22;978;48.314;11.562;2023-05-10T11:59:54;21.00;92.80
1956;DHT22;978;48.314;11.562;2023-05-10T12:02:23;21.00;92.80
1956;DHT22;978;48.314;11.562;2023-05-10T12:04:53;20.90;92.70
1956;DHT22;978;48.314;11.562;2023-05-10T12:07:21;20.90;92.70
1956;DHT22;978;48.314;11.562;2023-05-10T12:10:07;21.00;92.70
1956;DHT22;978;48.314;11.562;2023-05-10T12:12:39;20.90;93.00
1956;DHT22;978;48.314;11.562;2023-05-10T12:15:10;20.90;92.70
1956;DHT22;978;48.314;11.562;2023-05-10T12:17:38;20.90;92.70
1956;DHT22;978;48.314;11.562;2023-05-10T12:20:16;20.90;92.70
1956;DHT22;978;48.314;11.562;2023-05-10T12:22:49;20.90;92.70
1956;DHT22;978;48.314;11.562;2023-05-10T12:25:33;20.90;92.70
1956;DHT22;978;48.314;11.562;2023-05-10T12:28:07;20.90;92.70
1956;DHT22;978;48.314;11.562;2023-05-10T12:30:35;20.90;92.60
1956;DHT22;978;48.314;11.562;2023-05-10T12:33:07;20.90;92.70
1956;DHT22;978;48.314;11.562;2023-05-10T12:35:44;20.90;92.70
1956;DHT22;978;48.314;11.562;2023-05-10T12:38:27;20.90;92.70
1956;DHT22;978;48.314;11.562;2023-05-10T12:41:00;20.90;92.70
1956;DHT22;978;48.314;11.562;2023-05-10T12:43:27;20.90;92.70
1956;DHT22;978;48.314;11.562;2023-05-10T12:45:56;20.90;92.70
1956;DHT22;978;48.314;11.562;2023-05-10T12:48:23;20.90;92.60
1956;DHT22;978;48.314;11.562;2023-05-10T12:50:50;20.90;92.60
1956;DHT22;978;48.314;11.562;2023-05-10T12:53:20;20.90;92.60
1956;DHT22;978;48.314;11.562;2023-05-10T12:55:48;20.90;92.60
1956;DHT22;978;48.314;11.562;2023-05-10T12:58:17;20.90;92.60
1956;DHT22;978;48.314;11.562;2023-05-10T13:00:45;20.90;92.70
1956;DHT22;978;48.314;11.562;2023-05-10T13:03:12;20.90;92.90
1956;DHT22;978;48.314;11.562;2023-05-10T13:05:40;20.90;92.60
1956;DHT22;978;48.314;11.562;2023-05-10T13:08:06;20.90;92.60
1956;DHT22;978;48.314;11.562;2023-05-10T13:10:33;20.90;92.70
1956;DHT22;978;48.314;11.562;2023-05-10T13:13:00;20.90;92.60
1956;DHT22;978;48.314;11.562;2023-05-10T13:15:29;20.90;92.70
1956;DHT22;978;48.314;11.562;2023-05-10T13:17:58;20.90;92.60
1956;DHT22;978;48.314;11.562;2023-05-10T13:20:28;20.90;92.60
1956;DHT22;978;48.314;11.562;2023-05-10T13:22:56;20.90;92.60
1956;DHT22;978;48.314;11.562;2023-05-10T13:25:24;21.00;92.60
1956;DHT22;978;48.314;11.562;2023-05-10T13:27:53;20.90;92.60
1956;DHT22;978;48.314;11.562;2023-05-10T13:30:20;20.90;92.60
1956;DHT22;978;48.314;11.562;2023-05-10T13:32:50;20.90;92.80
1956;DHT22;978;48.314;11.562;2023-05-10T13:35:26;20.90;92.50
1956;DHT22;978;48.314;11.562;2023-05-10T13:37:57;20.90;92.50
1956;DHT22;978;48.314;11.562;2023-05-10T13:40:25;20.90;92.50
1956;DHT22;978;48.314;11.562;2023-05-10T13:42:54;20.90;92.50
1956;DHT22;978;48.314;11.562;2023-05-10T13:45:21;20.90;92.50
1956;DHT22;978;48.314;11.562;2023-05-10T13:47:51;20.90;92.50
1956;DHT22;978;48.314;11.562;2023-05-10T13:50:20;20.90;92.50
1956;DHT22;978;48.314;11.562;2023-05-10T13:52:46;20.90;92.50
1956;DHT22;978;48.314;11.562;2023-05-10T13:55:14;20.90;92.50
1956;DHT22;978;48.314;11.562;2023-05-10T13:57:41;20.90;92.50
1956;DHT22;978;48.314;11.562;2023-05-10T14:00:09;20.90;92.50
1956;DHT22;978;48.314;11.562;2023-05-10T14:02:36;20.90;92.50
1956;DHT22;978;48.314;11.562;2023-05-10T14:05:05;20.90;92.40
1956;DHT22;978;48.314;11.562;2023-05-10T14:07:33;20.90;92.40
1956;DHT22;978;48.314;11.562;2023-05-10T14:10:00;20.90;92.40
1956;DHT22;978;48.314;11.562;2023-05-10T14:12:28;20.90;92.40
1956;DHT22;978;48.314;11.562;2023-05-10T14:14:55;20.90;92.40
1956;DHT22;978;48.314;11.562;2023-05-10T14:17:24;20.90;92.40
1956;DHT22;978;48.314;11.562;2023-05-10T14:19:51;20.90;92.40
1956;DHT22;978;48.314;11.562;2023-05-10T14:22:20;20.90;92.40
1956;DHT22;978;48.314;11.562;2023-05-10T14:24:47;20.90;92.40
1956;DHT22;978;48.314;11.562;2023-05-10T14:27:15;20.90;92.40
1956;DHT22;978;48.314;11.562;2023-05-10T14:29:42;20.90;92.40
1956;DHT22;978;48.314;11.562;2023-05-10T14:32:09;20.90;92.40
1956;DHT22;978;48.314;11.562;2023-05-10T14:34:36;20.90;92.40
1956;DHT22;978;48.314;11.562;2023-05-10T14:37:02;20.90;92.40
1956;DHT22;978;48.314;11.562;2023-05-10T14:39:31;20.90;92.40
1956;DHT22;978;48.314;11.562;2023-05-10T14:41:59;20.90;92.40
1956;DHT22;978;48.314;11.562;2023-05-10T14:44:27;20.90;92.30
1956;DHT22;978;48.314;11.562;2023-05-10T14:46:54;20.90;92.40
1956;DHT22;978;48.314;11.562;2023-05-10T14:49:22;20.90;92.30
1956;DHT22;978;48.314;11.562;2023-05-10T14:51:51;20.90;92.30
1956;DHT22;978;48.314;11.562;2023-05-10T14:54:18;20.90;92.20
1956;DHT22;978;48.314;11.562;2023-05-10T14:56:48;20.90;92.30
1956;DHT22;978;48.314;11.562;2023-05-10T14:59:15;20.90;92.30
1956;DHT22;978;48.314;11.562;2023-05-10T15:01:42;20.90;92.30
1956;DHT22;978;48.314;11.562;2023-05-10T15:04:10;20.90;92.30
1956;DHT22;978;48.314;11.562;2023-05-10T15:06:38;20.90;92.20
1956;DHT22;978;48.314;11.562;2023-05-10T15:09:05;20.90;92.20
1956;DHT22;978;48.314;11.562;2023-05-10T15:11:33;20.90;92.20
1956;DHT22;978;48.314;11.562;2023-05-10T15:14:02;20.90;92.20
1956;DHT22;978;48.314;11.562;2023-05-10T15:16:30;20.90;92.20
1956;DHT22;978;48.314;11.562;2023-05-10T15:18:59;20.90;92.20
1956;DHT22;978;48.314;11.562;2023-05-10T15:21:27;20.90;92.20
1956;DHT22;978;48.314;11.562;2023-05-10T15:24:01;20.90;92.20
1956;DHT22;978;48.314;11.562;2023-05-10T15:26:29;20.90;92.10
1956;DHT22;978;48.314;11.562;2023-05-10T15:28:56;20.90;92.10
1956;DHT22;978;48.314;11.562;2023-05-10T15:31:26;20.90;92.10
1956;DHT22;978;48.314;11.562;2023-05-10T15:33:57;20.90;92.00
1956;DHT22;978;48.314;11.562;2023-05-10T15:36:24;20.90;91.80
1956;DHT22;978;48.314;11.562;2023-05-10T15:38:55;20.90;91.70
1956;DHT22;978;48.314;11.562;2023-05-10T15:41:21;20.90;91.60
1956;DHT22;978;48.314;11.562;2023-05-10T15:43:48;20.90;91.50
1956;DHT22;978;48.314;11.562;2023-05-10T15:46:15;20.90;91.40
1956;DHT22;978;48.314;11.562;2023-05-10T15:48:43;20.80;91.50
1956;DHT22;978;48.314;11.562;2023-05-10T15:51:10;20.90;91.60
1956;DHT22;978;48.314;11.562;2023-05-10T15:53:37;20.90;91.60
1956;DHT22;978;48.314;11.562;2023-05-10T15:56:05;20.90;91.70
1956;DHT22;978;48.314;11.562;2023-05-10T15:58:33;20.90;91.60
1956;DHT22;978;48.314;11.562;2023-05-10T16:01:04;20.90;91.60
1956;DHT22;978;48.314;11.562;2023-05-10T16:03:32;20.90;91.50
1956;DHT22;978;48.314;11.562;2023-05-10T16:06:05;20.90;91.50
1956;DHT22;978;48.314;11.562;2023-05-10T16:08:33;20.90;91.50
1956;DHT22;978;48.314;11.562;2023-05-10T16:11:03;20.90;91.40
1956;DHT22;978;48.314;11.562;2023-05-10T16:13:31;20.90;91.40
1956;DHT22;978;48.314;11.562;2023-05-10T16:16:06;20.90;91.30
1956;DHT22;978;48.314;11.562;2023-05-10T16:18:34;20.80;91.10
1956;DHT22;978;48.314;11.562;2023-05-10T16:21:03;20.90;90.90